Flight Track Log - Related Links

Times and Time Zones

All times are in EST time to prevent confusion due to time zone crossing. See the N75ZM flight status page for this flight to view local times or setup timezone preferences in your user account.

Time Position Orientation Groundspeed Altitude Reporting Facility
EST Latitude Longitude Course Direction KTS MPH feet Rate Location/Type
Fri 07:29:13 AM 33.9333 -84.3167 174° South 140 161 2,700  Level Atlanta TRACON
Fri 07:30:13 AM 33.9333 -84.3500 270° West 160 184 3,700 1,000 Climbing Atlanta TRACON
Fri 07:31:13 AM 33.9000 -84.4000 231° Southwest 150 173 4,700 1,000 Climbing Atlanta TRACON
Fri 07:32:13 AM 33.8667 -84.4167 203° Southwest 167 192 5,700 619 Climbing Atlanta TRACON
Fri 07:33:19 AM 33.8167 -84.4167 180° South 183 211 6,000 49 Climbing Atlanta TRACON
Fri 07:36:19 AM 33.6500 -84.4000 174° South 196 226 5,900 -20 Descending Atlanta TRACON
Fri 07:38:19 AM 33.5500 -84.3833 172° South 193 222 5,900  Level Atlanta TRACON
Fri 07:39:19 AM 33.5000 -84.3667 164° South 195 224 5,900  Level Atlanta TRACON
Fri 07:40:19 AM 33.4500 -84.3500 164° South 197 227 5,900  Level Atlanta TRACON
Fri 07:41:19 AM 33.4000 -84.3167 151° Southeast 200 230 5,900 125 Level Atlanta TRACON
Fri 07:44:19 AM 33.2667 -84.2000 164° South 188 216 6,400 167 Climbing Atlanta TRACON
Fri 07:47:19 AM 33.1500 -84.0667 180° South 204 235 6,900 125 Climbing Atlanta TRACON
Fri 07:48:19 AM 33.1000 -84.0333 151° Southeast 206 237 6,900 50 Level Atlanta TRACON
Fri 07:49:19 AM 33.0500 -83.9833 140° Southeast 206 237 7,000 55 Climbing Atlanta TRACON
Fri 07:50:08 AM 33.0167 -83.9500 140° Southeast 206 237 7,000  Level Atlanta TRACON
Fri 07:51:19 AM 32.9667 -83.9000 140° Southeast 206 237 7,000  Level Atlanta TRACON
Fri 07:52:20 AM 32.9167 -83.8667 151° Southeast 206 237 7,000  Level Atlanta TRACON
Fri 07:55:20 AM 32.7833 -83.7333 140° Southeast 206 237 7,000  Level Atlanta TRACON
Fri 07:56:20 AM 32.7333 -83.6833 140° Southeast 201 231 7,000  Level Atlanta TRACON
Fri 07:57:20 AM 32.7000 -83.6500 140° Southeast 210 242 7,000  Level Atlanta TRACON
Fri 07:58:20 AM 32.6500 -83.6000 140° Southeast 198 228 7,000 -50 Level Atlanta TRACON
Fri 07:59:20 AM 32.6000 -83.5667 151° Southeast 205 236 6,900 -50 Descending Atlanta TRACON
Fri 08:00:20 AM 32.5667 -83.5167 128° Southeast 207 238 6,900  Level Atlanta TRACON
Fri 08:02:29 AM 32.4597 -83.4342 147° Southeast 206 237 6,900  Level Jacksonville Center
Fri 08:03:29 AM 32.4139 -83.3897 141° Southeast 206 237 6,900  Level Jacksonville Center
Fri 08:04:29 AM 32.3683 -83.3525 145° Southeast 201 231 6,900  Level Jacksonville Center
Fri 08:05:29 AM 32.3139 -83.3325 163° South 196 226 6,900  Level Jacksonville Center
Fri 08:06:29 AM 32.2597 -83.3128 163° South 201 231 6,900  Level Jacksonville Center
Fri 08:07:29 AM 32.2139 -83.2756 146° Southeast 201 231 6,900  Level Jacksonville Center
Fri 08:08:29 AM 32.1703 -83.2314 139° Southeast 201 231 6,900  Level Jacksonville Center
Fri 08:09:29 AM 32.1244 -83.1919 144° Southeast 206 237 6,900  Level Jacksonville Center
Fri 08:10:29 AM 32.0847 -83.1525 140° Southeast 206 237 6,900  Level Jacksonville Center
Fri 08:11:29 AM 32.0411 -83.1108 141° Southeast 206 237 6,900  Level Jacksonville Center
Fri 08:12:29 AM 31.9972 -83.0689 141° Southeast 201 231 6,900  Level Jacksonville Center
Fri 08:13:29 AM 31.9556 -83.0272 140° Southeast 201 231 6,900  Level Jacksonville Center
Fri 08:14:29 AM 31.9117 -82.9856 141° Southeast 201 231 6,900  Level Jacksonville Center
Fri 08:15:29 AM 31.8681 -82.9439 141° Southeast 201 231 6,900  Level Jacksonville Center
Fri 08:16:29 AM 31.8242 -82.9022 141° Southeast 201 231 6,900  Level Jacksonville Center
Fri 08:17:29 AM 31.7825 -82.8608 140° Southeast 201 231 6,900  Level Jacksonville Center
Fri 08:18:29 AM 31.7386 -82.8192 141° Southeast 201 231 6,900  Level Jacksonville Center
Fri 08:19:29 AM 31.6947 -82.7778 141° Southeast 201 231 6,900  Level Jacksonville Center
Fri 08:20:29 AM 31.6528 -82.7364 140° Southeast 201 231 6,900 50 Level Jacksonville Center
Fri 08:21:29 AM 31.6089 -82.6950 141° Southeast 201 231 7,000  Climbing Jacksonville Center
Fri 08:22:29 AM 31.5672 -82.6561 142° Southeast 201 231 6,900 -50 Descending Jacksonville Center
Fri 08:23:29 AM 31.5231 -82.6147 141° Southeast 201 231 6,900  Level Jacksonville Center
Fri 08:24:29 AM 31.4814 -82.5733 140° Southeast 201 231 6,900 50 Level Jacksonville Center
Fri 08:25:29 AM 31.4394 -82.5322 140° Southeast 201 231 7,000  Climbing Jacksonville Center
Fri 08:26:29 AM 31.3975 -82.4933 142° Southeast 201 231 6,900 -50 Descending Jacksonville Center
Fri 08:27:29 AM 31.3514 -82.4547 144° Southeast 201 231 6,900  Level Jacksonville Center
Fri 08:28:29 AM 31.3075 -82.4136 141° Southeast 201 231 6,900  Level Jacksonville Center
Fri 08:29:29 AM 31.2636 -82.3725 141° Southeast 201 231 6,900  Level Jacksonville Center
Fri 08:30:29 AM 31.2217 -82.3339 142° Southeast 201 231 6,900 -150 Level Jacksonville Center
Fri 08:31:29 AM 31.1775 -82.2928 141° Southeast 201 231 6,600 -400 Descending Jacksonville Center
Fri 08:32:29 AM 31.1336 -82.2494 140° Southeast 201 231 6,100 -300 Descending Jacksonville Center
Fri 08:33:29 AM 31.0894 -82.2083 141° Southeast 201 231 6,000 -254 Descending Jacksonville Center
Fri 08:33:40 AM 31.0747 -82.1964 145° Southeast 207 238 5,800 -226 Descending Jacksonville Center
Fri 08:34:22 AM 31.0475 -82.1650 135° Southeast 200 230 5,800 122 Level Jacksonville Center
Fri 08:34:29 AM 31.0453 -82.1650 180° South 201 231 5,900 90 Climbing Jacksonville Center
Fri 08:35:29 AM 30.9992 -82.1219 141° Southeast 194 223 5,900 50 Level Jacksonville Center
Fri 08:36:29 AM 30.9592 -82.0858 142° Southeast 201 231 6,000  Climbing Jacksonville Center
Fri 08:36:36 AM 30.9531 -82.0786 135° Southeast 198 228 5,900 -88 Descending Jacksonville Center
Fri 08:37:37 AM 30.9089 -82.0378 142° Southeast 199 229 5,900 53 Level Jacksonville Center
Fri 08:38:29 AM 30.8753 -82.0067 142° Southeast 201 231 6,000  Climbing Jacksonville Center
Fri 08:38:31 AM 30.8667 -81.9994 144° Southeast 200 230 5,900  Descending Jacksonville Center
Fri 08:39:29 AM 30.8289 -81.9661 143° Southeast 201 231 6,000  Climbing Jacksonville Center
Fri 08:39:32 AM 30.8228 -81.9589 135° Southeast 201 231 5,900 -94 Descending Jacksonville Center
Fri 08:40:33 AM 30.7806 -81.9181 140° Southeast 199 229 5,900  Level Jacksonville Center
Fri 08:41:22 AM 30.7450 -81.8869 143° Southeast 199 229 5,900 107 Level Jacksonville Center
Fri 08:41:29 AM 30.7447 -81.8847 98° East 201 231 6,000  Climbing Jacksonville Center
Fri 08:42:23 AM 30.7006 -81.8464 143° Southeast 197 227 5,900  Descending Jacksonville Center
Fri 08:42:29 AM 30.7006 -81.8464 143° Southeast 201 231 6,000  Climbing Jacksonville Center
Fri 08:43:23 AM 30.6586 -81.8058 140° Southeast 196 226 5,900  Descending Jacksonville Center
Fri 08:43:29 AM 30.6564 -81.8058 180° South 201 231 6,000  Climbing Jacksonville Center
Fri 08:44:30 AM 30.6081 -81.7581 140° Southeast 197 227 5,900 -49 Descending Jacksonville Center
Fri 08:45:31 AM 30.5658 -81.7200 142° Southeast 198 228 5,900  Level Jacksonville Center
Fri 08:46:32 AM 30.5217 -81.6819 143° Southeast 197 227 5,900  Level Jacksonville Center
Fri 08:47:27 AM 30.4839 -81.6439 139° Southeast 199 229 5,900  Level Jacksonville Center
Fri 08:48:28 AM 30.4375 -81.6036 143° Southeast 199 229 5,900  Level Jacksonville Center
Fri 08:49:29 AM 30.3953 -81.5633 141° Southeast 198 228 5,900  Level Jacksonville Center
Fri 08:50:36 AM 30.3489 -81.5228 143° Southeast 198 228 5,900  Level Jacksonville Center
Fri 08:51:31 AM 30.3028 -81.5139 171° South 176 203 5,900 -45 Level Jacksonville Center
Fri 08:52:50 AM 30.2361 -81.5053 174° South 180 207 5,800  Descending Jacksonville Center
Fri 08:53:38 AM 30.1964 -81.5058 181° South 179 206 5,900 55 Climbing Jacksonville Center
Fri 08:54:39 AM 30.1461 -81.5067 181° South 178 205 5,900  Level Jacksonville Center
Fri 08:55:40 AM 30.0961 -81.5000 173° South 179 206 5,900  Level Jacksonville Center
Fri 08:56:41 AM 30.0458 -81.5008 181° South 180 207 5,900  Level Jacksonville Center
Fri 08:57:42 AM 29.9936 -81.4967 176° South 183 211 5,900  Level Jacksonville Center
Fri 08:58:37 AM 29.9478 -81.4975 181° South 184 212 5,900  Level Jacksonville Center
Fri 08:59:45 AM 29.8894 -81.4958 179° South 184 212 5,900  Level Jacksonville Center
Fri 09:00:45 AM 29.8392 -81.4919 176° South 183 211 5,900  Level Jacksonville Center
Fri 09:01:46 AM 29.7892 -81.4903 178° South 180 207 5,900  Level Jacksonville Center
Fri 09:02:47 AM 29.7389 -81.4908 181° South 178 205 5,900  Level Jacksonville Center
Fri 09:03:48 AM 29.6847 -81.4869 176° South 178 205 5,900  Level Jacksonville Center
Fri 09:04:49 AM 29.6367 -81.4853 178° South 176 203 5,900  Level Jacksonville Center
Fri 09:05:49 AM 29.5864 -81.4786 173° South 183 211 5,900  Level Jacksonville Center
Fri 09:06:50 AM 29.5361 -81.4628 165° South 183 211 5,900  Level Jacksonville Center
Fri 09:07:57 AM 29.4797 -81.4492 168° South 182 209 5,900  Level Jacksonville Center
Fri 09:08:58 AM 29.4294 -81.4381 169° South 183 211 5,900  Level Jacksonville Center
Fri 09:09:59 AM 29.3792 -81.4342 176° South 182 209 5,900  Level Jacksonville Center
Fri 09:11:06 AM 29.3208 -81.4256 173° South 181 208 5,900  Level Jacksonville Center
Fri 09:12:07 AM 29.2706 -81.4167 171° South 183 211 5,900 -184 Level Jacksonville Center
Fri 09:14:22 AM 29.1500 -81.4000 173° South 196 226 5,300 -337 Descending Orlando TRACON
Fri 09:15:23 AM 29.1000 -81.4000 180° South 192 221 4,800 -522 Descending Orlando TRACON
Fri 09:16:17 AM 29.0500 -81.3833 164° South 185 213 4,300 -474 Descending Orlando TRACON
Fri 09:17:17 AM 29.0000 -81.3833 180° South 185 213 3,900 -200 Descending Orlando TRACON
Fri 09:18:17 AM 28.9500 -81.3667 164° South 187 215 3,900  Level Orlando TRACON
Fri 09:19:17 AM 28.9000 -81.3833 196° South 180 207 3,900  Level Orlando TRACON
Fri 09:20:18 AM 28.8667 -81.4167 221° Southwest 182 209 3,900  Level Orlando TRACON
Fri 09:21:24 AM 28.8167 -81.4500 210° Southwest 182 209 3,900  Level Orlando TRACON
Fri 09:22:18 AM 28.7667 -81.4833 210° Southwest 179 206 3,900  Level Orlando TRACON
Fri 09:23:18 AM 28.7333 -81.5000 204° Southwest 178 205 3,900  Level Orlando TRACON
Fri 09:24:18 AM 28.6833 -81.5000 180° South 183 211 3,900 -149 Level Orlando TRACON
Fri 09:25:19 AM 28.6167 -81.5000 180° South 189 217 3,600 -417 Descending Orlando TRACON
Fri 09:26:13 AM 28.5833 -81.5167 204° Southwest 188 216 3,100 -350 Descending Orlando TRACON
Fri 09:27:19 AM 28.5167 -81.5167 180° South 190 219 2,900 -99 Descending Orlando TRACON
Fri 09:28:14 AM 28.4667 -81.5167 180° South 190 219 2,900  Level Orlando TRACON
Fri 09:29:20 AM 28.4167 -81.5167 180° South 193 222 2,900  Level Orlando TRACON
Fri 09:30:20 AM 28.3667 -81.5167 180° South 193 222 2,900  Level Orlando TRACON
Fri 09:31:26 AM 28.3000 -81.5333 192° South 182 209 2,900 -446 Level Orlando TRACON
Fri 09:32:21 AM 28.2667 -81.5333 180° South 165 190 2,000 -522 Descending Orlando TRACON
Fri 09:33:21 AM 28.2167 -81.5000 150° Southeast 152 175 1,900 -333 Descending Orlando TRACON
Fri 09:34:27 AM 28.2333 -81.4667 60° Northeast 102 117 1,300 -381 Descending Orlando TRACON
Fri 09:35:27 AM 28.2500 -81.4500 41° Northeast 100 115 1,100 -250 Descending Orlando TRACON
Fri 09:36:27 AM 28.2500 -81.4167 90° East 79 91 800 -300 Descending Orlando TRACON
Fri 09:38:00 AM 28.2833 -81.4333 30° Northeast  Level FlightAware Approximate
Fri 09:45:00 AM 28.2898 -81.4371 30° Northeast  Level Estimated
Fri 09:46:00 AM 28.2898 -81.4371 30° Northeast  Level Estimated
Fri 09:47:00 AM 28.2898 -81.4371 30° Northeast  Level Estimated
Fri 09:48:00 AM 28.2898 -81.4371 30° Northeast  Level Estimated

Login

Don't have an account? Register now (free) for customized features, flight alerts, and more!